sensor_id;sensor_type;location;lat;lon;timestamp;temperature;humidity
18729;DHT22;9493;51.884;5.188;2023-07-20T00:02:04;16.70;99.90
18729;DHT22;9493;51.884;5.188;2023-07-20T00:04:32;16.60;99.90
18729;DHT22;9493;51.884;5.188;2023-07-20T00:06:59;16.70;99.90
18729;DHT22;9493;51.884;5.188;2023-07-20T00:09:28;16.70;99.90
18729;DHT22;9493;51.884;5.188;2023-07-20T00:11:55;16.60;99.90
18729;DHT22;9493;51.884;5.188;2023-07-20T00:14:22;16.50;99.90
18729;DHT22;9493;51.884;5.188;2023-07-20T00:16:50;16.40;99.90
18729;DHT22;9493;51.884;5.188;2023-07-20T00:19:21;16.30;99.90
18729;DHT22;9493;51.884;5.188;2023-07-20T00:21:48;16.30;99.90
18729;DHT22;9493;51.884;5.188;2023-07-20T00:24:15;16.30;99.90
18729;DHT22;9493;51.884;5.188;2023-07-20T00:26:43;16.20;99.90
18729;DHT22;9493;51.884;5.188;2023-07-20T00:29:10;16.20;99.90
18729;DHT22;9493;51.884;5.188;2023-07-20T00:31:37;16.10;99.90
18729;DHT22;9493;51.884;5.188;2023-07-20T00:34:04;16.10;99.90
18729;DHT22;9493;51.884;5.188;2023-07-20T00:36:31;16.10;99.90
18729;DHT22;9493;51.884;5.188;2023-07-20T00:38:58;16.10;99.90
18729;DHT22;9493;51.884;5.188;2023-07-20T00:41:25;16.10;99.90
18729;DHT22;9493;51.884;5.188;2023-07-20T00:43:56;16.10;99.90
18729;DHT22;9493;51.884;5.188;2023-07-20T00:46:23;16.10;99.90
18729;DHT22;9493;51.884;5.188;2023-07-20T00:48:51;16.10;99.90
18729;DHT22;9493;51.884;5.188;2023-07-20T00:51:19;16.20;99.90
18729;DHT22;9493;51.884;5.188;2023-07-20T00:53:46;16.10;99.90
18729;DHT22;9493;51.884;5.188;2023-07-20T00:56:13;16.10;99.90
18729;DHT22;9493;51.884;5.188;2023-07-20T00:58:41;16.10;99.90
18729;DHT22;9493;51.884;5.188;2023-07-20T01:01:09;16.10;99.90
18729;DHT22;9493;51.884;5.188;2023-07-20T01:03:36;16.00;99.90
18729;DHT22;9493;51.884;5.188;2023-07-20T01:06:11;16.00;99.90
18729;DHT22;9493;51.884;5.188;2023-07-20T01:08:47;16.00;99.90
18729;DHT22;9493;51.884;5.188;2023-07-20T01:11:27;16.00;99.90
18729;DHT22;9493;51.884;5.188;2023-07-20T01:13:56;16.00;99.90
18729;DHT22;9493;51.884;5.188;2023-07-20T01:16:24;16.00;99.90
18729;DHT22;9493;51.884;5.188;2023-07-20T01:18:51;15.90;99.90
18729;DHT22;9493;51.884;5.188;2023-07-20T01:21:22;15.90;99.90
18729;DHT22;9493;51.884;5.188;2023-07-20T01:24:17;15.90;99.90
18729;DHT22;9493;51.884;5.188;2023-07-20T01:27:06;15.80;99.90
18729;DHT22;9493;51.884;5.188;2023-07-20T01:29:55;15.70;99.90
18729;DHT22;9493;51.884;5.188;2023-07-20T01:32:29;15.70;99.90
18729;DHT22;9493;51.884;5.188;2023-07-20T01:35:02;15.70;99.90
18729;DHT22;9493;51.884;5.188;2023-07-20T01:37:29;15.70;99.90
18729;DHT22;9493;51.884;5.188;2023-07-20T01:39:57;15.70;99.90
18729;DHT22;9493;51.884;5.188;2023-07-20T01:42:24;15.60;99.90
18729;DHT22;9493;51.884;5.188;2023-07-20T01:44:52;15.60;99.90
18729;DHT22;9493;51.884;5.188;2023-07-20T01:47:19;15.60;99.90
18729;DHT22;9493;51.884;5.188;2023-07-20T01:49:47;15.60;99.90
18729;DHT22;9493;51.884;5.188;2023-07-20T01:52:14;15.50;99.90
18729;DHT22;9493;51.884;5.188;2023-07-20T01:54:41;15.40;99.90
18729;DHT22;9493;51.884;5.188;2023-07-20T01:57:08;15.50;99.90
18729;DHT22;9493;51.884;5.188;2023-07-20T01:59:35;15.40;99.90
18729;DHT22;9493;51.884;5.188;2023-07-20T02:02:01;15.40;99.90
18729;DHT22;9493;51.884;5.188;2023-07-20T02:04:28;15.40;99.90
18729;DHT22;9493;51.884;5.188;2023-07-20T02:06:56;15.30;99.90
18729;DHT22;9493;51.884;5.188;2023-07-20T02:09:23;15.30;99.90
18729;DHT22;9493;51.884;5.188;2023-07-20T02:11:50;15.20;99.90
18729;DHT22;9493;51.884;5.188;2023-07-20T02:14:17;15.30;99.90
18729;DHT22;9493;51.884;5.188;2023-07-20T02:16:44;15.30;99.90
18729;DHT22;9493;51.884;5.188;2023-07-20T02:19:10;15.20;99.90
18729;DHT22;9493;51.884;5.188;2023-07-20T02:21:37;15.20;99.90
18729;DHT22;9493;51.884;5.188;2023-07-20T02:24:06;15.10;99.90
18729;DHT22;9493;51.884;5.188;2023-07-20T02:26:32;15.00;99.90
18729;DHT22;9493;51.884;5.188;2023-07-20T02:28:59;15.00;99.90
18729;DHT22;9493;51.884;5.188;2023-07-20T02:31:26;15.00;99.90
18729;DHT22;9493;51.884;5.188;2023-07-20T02:33:53;14.90;99.90
18729;DHT22;9493;51.884;5.188;2023-07-20T02:36:19;14.90;99.90
18729;DHT22;9493;51.884;5.188;2023-07-20T02:38:46;14.90;99.90
18729;DHT22;9493;51.884;5.188;2023-07-20T02:41:14;14.90;99.90
18729;DHT22;9493;51.884;5.188;2023-07-20T02:43:41;14.90;99.90
18729;DHT22;9493;51.884;5.188;2023-07-20T02:46:08;14.90;99.90
18729;DHT22;9493;51.884;5.188;2023-07-20T02:48:35;14.80;99.90
18729;DHT22;9493;51.884;5.188;2023-07-20T02:51:02;14.90;99.90
18729;DHT22;9493;51.884;5.188;2023-07-20T02:53:28;14.80;99.90
18729;DHT22;9493;51.884;5.188;2023-07-20T02:55:55;14.80;99.90
18729;DHT22;9493;51.884;5.188;2023-07-20T02:58:23;14.80;99.90
18729;DHT22;9493;51.884;5.188;2023-07-20T03:00:50;14.80;99.90
18729;DHT22;9493;51.884;5.188;2023-07-20T03:03:17;14.80;99.90
18729;DHT22;9493;51.884;5.188;2023-07-20T03:05:44;14.70;99.90
18729;DHT22;9493;51.884;5.188;2023-07-20T03:08:11;14.70;99.90
18729;DHT22;9493;51.884;5.188;2023-07-20T03:10:39;14.70;99.90
18729;DHT22;9493;51.884;5.188;2023-07-20T03:13:07;14.70;99.90
18729;DHT22;9493;51.884;5.188;2023-07-20T03:15:35;14.60;99.90
18729;DHT22;9493;51.884;5.188;2023-07-20T03:18:02;14.70;99.90
18729;DHT22;9493;51.884;5.188;2023-07-20T03:20:31;14.60;99.90
18729;DHT22;9493;51.884;5.188;2023-07-20T03:22:58;14.60;99.90
18729;DHT22;9493;51.884;5.188;2023-07-20T03:25:24;14.60;99.90
18729;DHT22;9493;51.884;5.188;2023-07-20T03:27:51;14.50;99.90
18729;DHT22;9493;51.884;5.188;2023-07-20T03:30:18;14.50;99.90
18729;DHT22;9493;51.884;5.188;2023-07-20T03:32:46;14.50;99.90
18729;DHT22;9493;51.884;5.188;2023-07-20T03:35:13;14.50;99.90
18729;DHT22;9493;51.884;5.188;2023-07-20T03:37:41;14.50;99.90
18729;DHT22;9493;51.884;5.188;2023-07-20T03:40:09;14.50;99.90
18729;DHT22;9493;51.884;5.188;2023-07-20T03:42:36;14.40;99.90
18729;DHT22;9493;51.884;5.188;2023-07-20T03:45:05;14.50;99.90
18729;DHT22;9493;51.884;5.188;2023-07-20T03:47:32;14.40;99.90
18729;DHT22;9493;51.884;5.188;2023-07-20T03:50:00;14.40;99.90
18729;DHT22;9493;51.884;5.188;2023-07-20T03:52:27;14.40;99.90
18729;DHT22;9493;51.884;5.188;2023-07-20T03:54:53;14.40;99.90
18729;DHT22;9493;51.884;5.188;2023-07-20T03:57:20;14.40;99.90
18729;DHT22;9493;51.884;5.188;2023-07-20T03:59:48;14.40;99.90
18729;DHT22;9493;51.884;5.188;2023-07-20T04:02:15;14.30;99.90
18729;DHT22;9493;51.884;5.188;2023-07-20T04:04:42;14.40;99.90
18729;DHT22;9493;51.884;5.188;2023-07-20T04:07:10;14.40;99.90
18729;DHT22;9493;51.884;5.188;2023-07-20T04:09:37;14.40;99.90
18729;DHT22;9493;51.884;5.188;2023-07-20T04:12:04;14.40;99.90
18729;DHT22;9493;51.884;5.188;2023-07-20T04:14:31;14.40;99.90
18729;DHT22;9493;51.884;5.188;2023-07-20T04:16:57;14.40;99.90
18729;DHT22;9493;51.884;5.188;2023-07-20T04:19:25;14.40;99.90
18729;DHT22;9493;51.884;5.188;2023-07-20T04:21:52;14.40;99.90
18729;DHT22;9493;51.884;5.188;2023-07-20T04:24:20;14.40;99.90
18729;DHT22;9493;51.884;5.188;2023-07-20T04:26:47;14.40;99.90
18729;DHT22;9493;51.884;5.188;2023-07-20T04:29:14;14.40;99.90
18729;DHT22;9493;51.884;5.188;2023-07-20T04:31:41;14.40;99.90
18729;DHT22;9493;51.884;5.188;2023-07-20T04:34:07;14.50;99.90
18729;DHT22;9493;51.884;5.188;2023-07-20T04:36:34;14.40;99.90
18729;DHT22;9493;51.884;5.188;2023-07-20T04:39:03;14.50;99.90
18729;DHT22;9493;51.884;5.188;2023-07-20T04:41:31;14.50;99.90
18729;DHT22;9493;51.884;5.188;2023-07-20T04:43:58;14.50;99.90
18729;DHT22;9493;51.884;5.188;2023-07-20T04:46:25;14.50;99.90
18729;DHT22;9493;51.884;5.188;2023-07-20T04:48:52;14.60;99.90
18729;DHT22;9493;51.884;5.188;2023-07-20T04:51:18;14.60;99.90
18729;DHT22;9493;51.884;5.188;2023-07-20T04:53:46;14.60;99.90
18729;DHT22;9493;51.884;5.188;2023-07-20T04:56:13;14.60;99.90
18729;DHT22;9493;51.884;5.188;2023-07-20T04:58:42;14.70;99.90
18729;DHT22;9493;51.884;5.188;2023-07-20T05:01:08;14.70;99.90
18729;DHT22;9493;51.884;5.188;2023-07-20T05:03:35;14.80;99.90
18729;DHT22;9493;51.884;5.188;2023-07-20T05:06:02;14.80;99.90
18729;DHT22;9493;51.884;5.188;2023-07-20T05:08:29;14.90;99.90
18729;DHT22;9493;51.884;5.188;2023-07-20T05:10:56;14.90;99.90
18729;DHT22;9493;51.884;5.188;2023-07-20T05:13:23;14.90;99.90
18729;DHT22;9493;51.884;5.188;2023-07-20T05:15:53;15.00;99.90
18729;DHT22;9493;51.884;5.188;2023-07-20T05:18:20;15.10;99.90
18729;DHT22;9493;51.884;5.188;2023-07-20T05:20:47;15.10;99.90
18729;DHT22;9493;51.884;5.188;2023-07-20T05:23:14;15.20;99.90
18729;DHT22;9493;51.884;5.188;2023-07-20T05:25:40;15.20;99.90
18729;DHT22;9493;51.884;5.188;2023-07-20T05:28:07;15.30;99.90
18729;DHT22;9493;51.884;5.188;2023-07-20T05:30:34;15.30;99.90
18729;DHT22;9493;51.884;5.188;2023-07-20T05:33:02;15.30;99.90
18729;DHT22;9493;51.884;5.188;2023-07-20T05:35:29;15.30;99.90
18729;DHT22;9493;51.884;5.188;2023-07-20T05:37:56;15.20;99.90
18729;DHT22;9493;51.884;5.188;2023-07-20T05:40:23;15.30;99.90
18729;DHT22;9493;51.884;5.188;2023-07-20T05:42:50;15.50;99.90
18729;DHT22;9493;51.884;5.188;2023-07-20T05:45:19;15.50;99.90
18729;DHT22;9493;51.884;5.188;2023-07-20T05:47:46;15.60;99.90
18729;DHT22;9493;51.884;5.188;2023-07-20T05:50:15;15.70;99.90
18729;DHT22;9493;51.884;5.188;2023-07-20T05:52:42;15.70;99.90
18729;DHT22;9493;51.884;5.188;2023-07-20T05:55:09;15.70;99.90
18729;DHT22;9493;51.884;5.188;2023-07-20T05:57:35;15.70;99.90
18729;DHT22;9493;51.884;5.188;2023-07-20T06:00:08;15.80;99.90
18729;DHT22;9493;51.884;5.188;2023-07-20T06:02:35;15.90;99.90
18729;DHT22;9493;51.884;5.188;2023-07-20T06:05:02;15.80;99.90
18729;DHT22;9493;51.884;5.188;2023-07-20T06:07:30;15.80;99.90
18729;DHT22;9493;51.884;5.188;2023-07-20T06:09:57;15.90;99.90
18729;DHT22;9493;51.884;5.188;2023-07-20T06:12:25;16.00;99.90
18729;DHT22;9493;51.884;5.188;2023-07-20T06:14:52;16.00;99.90
18729;DHT22;9493;51.884;5.188;2023-07-20T06:17:18;16.00;99.90
18729;DHT22;9493;51.884;5.188;2023-07-20T06:19:45;16.10;99.90
18729;DHT22;9493;51.884;5.188;2023-07-20T06:22:12;16.10;99.90
18729;DHT22;9493;51.884;5.188;2023-07-20T06:24:40;16.20;99.90
18729;DHT22;9493;51.884;5.188;2023-07-20T06:27:07;16.20;99.90
18729;DHT22;9493;51.884;5.188;2023-07-20T06:29:34;16.20;99.90
18729;DHT22;9493;51.884;5.188;2023-07-20T06:32:00;16.30;99.90
18729;DHT22;9493;51.884;5.188;2023-07-20T06:34:27;16.30;99.90
18729;DHT22;9493;51.884;5.188;2023-07-20T06:36:55;16.30;99.90
18729;DHT22;9493;51.884;5.188;2023-07-20T06:39:22;16.30;99.90
18729;DHT22;9493;51.884;5.188;2023-07-20T06:41:50;16.40;99.90
18729;DHT22;9493;51.884;5.188;2023-07-20T06:44:17;16.40;99.90
18729;DHT22;9493;51.884;5.188;2023-07-20T06:46:43;16.40;99.90
18729;DHT22;9493;51.884;5.188;2023-07-20T06:49:24;16.40;99.90
18729;DHT22;9493;51.884;5.188;2023-07-20T06:51:51;16.50;99.90
18729;DHT22;9493;51.884;5.188;2023-07-20T06:54:18;16.60;99.90
18729;DHT22;9493;51.884;5.188;2023-07-20T06:56:45;16.70;99.90
18729;DHT22;9493;51.884;5.188;2023-07-20T06:59:13;16.80;99.90
18729;DHT22;9493;51.884;5.188;2023-07-20T07:01:39;16.80;99.90
18729;DHT22;9493;51.884;5.188;2023-07-20T07:04:06;17.00;99.90
18729;DHT22;9493;51.884;5.188;2023-07-20T07:06:33;17.10;99.90
18729;DHT22;9493;51.884;5.188;2023-07-20T07:09:01;17.10;99.90
18729;DHT22;9493;51.884;5.188;2023-07-20T07:11:27;17.30;99.90
18729;DHT22;9493;51.884;5.188;2023-07-20T07:13:54;17.40;99.90
18729;DHT22;9493;51.884;5.188;2023-07-20T07:16:22;17.60;99.90
18729;DHT22;9493;51.884;5.188;2023-07-20T07:18:50;17.70;99.90
18729;DHT22;9493;51.884;5.188;2023-07-20T07:21:17;17.90;99.90
18729;DHT22;9493;51.884;5.188;2023-07-20T07:23:45;17.90;99.90
18729;DHT22;9493;51.884;5.188;2023-07-20T07:26:12;18.00;99.90
18729;DHT22;9493;51.884;5.188;2023-07-20T07:28:39;18.00;99.90
18729;DHT22;9493;51.884;5.188;2023-07-20T07:31:06;18.00;99.90
18729;DHT22;9493;51.884;5.188;2023-07-20T07:33:34;18.00;99.90
18729;DHT22;9493;51.884;5.188;2023-07-20T07:36:02;18.00;99.90
18729;DHT22;9493;51.884;5.188;2023-07-20T07:38:28;18.00;99.90
18729;DHT22;9493;51.884;5.188;2023-07-20T07:40:55;18.10;99.90
18729;DHT22;9493;51.884;5.188;2023-07-20T07:43:22;18.10;99.90
18729;DHT22;9493;51.884;5.188;2023-07-20T07:45:49;18.00;99.90
18729;DHT22;9493;51.884;5.188;2023-07-20T07:48:16;18.00;99.90
18729;DHT22;9493;51.884;5.188;2023-07-20T07:50:44;17.90;99.90
18729;DHT22;9493;51.884;5.188;2023-07-20T07:53:11;17.90;99.90
18729;DHT22;9493;51.884;5.188;2023-07-20T07:55:38;18.40;99.90
18729;DHT22;9493;51.884;5.188;2023-07-20T07:58:05;18.40;99.90
18729;DHT22;9493;51.884;5.188;2023-07-20T08:00:32;19.20;99.90
18729;DHT22;9493;51.884;5.188;2023-07-20T08:02:59;19.40;99.90
18729;DHT22;9493;51.884;5.188;2023-07-20T08:05:26;19.70;99.90
18729;DHT22;9493;51.884;5.188;2023-07-20T08:07:54;19.80;99.90
18729;DHT22;9493;51.884;5.188;2023-07-20T08:10:21;19.90;99.90
18729;DHT22;9493;51.884;5.188;2023-07-20T08:12:48;20.00;99.90
18729;DHT22;9493;51.884;5.188;2023-07-20T08:15:15;19.70;99.90
18729;DHT22;9493;51.884;5.188;2023-07-20T08:17:42;20.00;99.90
18729;DHT22;9493;51.884;5.188;2023-07-20T08:20:12;20.50;99.90
18729;DHT22;9493;51.884;5.188;2023-07-20T08:22:39;20.60;99.90
18729;DHT22;9493;51.884;5.188;2023-07-20T08:25:08;21.20;99.90
18729;DHT22;9493;51.884;5.188;2023-07-20T08:27:36;21.40;99.90
18729;DHT22;9493;51.884;5.188;2023-07-20T08:30:04;20.80;99.90
18729;DHT22;9493;51.884;5.188;2023-07-20T08:32:32;20.80;99.90
18729;DHT22;9493;51.884;5.188;2023-07-20T08:34:59;20.90;99.90
18729;DHT22;9493;51.884;5.188;2023-07-20T08:37:26;20.50;99.90
18729;DHT22;9493;51.884;5.188;2023-07-20T08:39:53;20.40;99.90
18729;DHT22;9493;51.884;5.188;2023-07-20T08:42:22;20.30;99.90
18729;DHT22;9493;51.884;5.188;2023-07-20T08:44:50;20.10;99.90
18729;DHT22;9493;51.884;5.188;2023-07-20T08:47:20;19.80;99.90
18729;DHT22;9493;51.884;5.188;2023-07-20T08:49:48;19.70;99.90
18729;DHT22;9493;51.884;5.188;2023-07-20T08:52:15;20.10;99.90
18729;DHT22;9493;51.884;5.188;2023-07-20T08:54:42;20.80;99.90
18729;DHT22;9493;51.884;5.188;2023-07-20T08:57:11;21.20;99.90
18729;DHT22;9493;51.884;5.188;2023-07-20T08:59:41;21.10;99.90
18729;DHT22;9493;51.884;5.188;2023-07-20T09:02:14;21.80;99.90
18729;DHT22;9493;51.884;5.188;2023-07-20T09:04:44;22.00;99.90
18729;DHT22;9493;51.884;5.188;2023-07-20T09:07:13;22.00;99.90
18729;DHT22;9493;51.884;5.188;2023-07-20T09:09:41;21.80;99.90
18729;DHT22;9493;51.884;5.188;2023-07-20T09:12:13;21.20;99.90
18729;DHT22;9493;51.884;5.188;2023-07-20T09:14:44;21.10;99.90
18729;DHT22;9493;51.884;5.188;2023-07-20T09:17:13;20.90;99.90
18729;DHT22;9493;51.884;5.188;2023-07-20T09:19:45;21.00;99.90
18729;DHT22;9493;51.884;5.188;2023-07-20T09:22:12;21.00;99.90
18729;DHT22;9493;51.884;5.188;2023-07-20T09:24:39;21.60;99.90
18729;DHT22;9493;51.884;5.188;2023-07-20T09:27:07;21.60;99.90
18729;DHT22;9493;51.884;5.188;2023-07-20T09:29:35;21.70;99.90
18729;DHT22;9493;51.884;5.188;2023-07-20T09:32:04;21.90;99.90
18729;DHT22;9493;51.884;5.188;2023-07-20T09:34:31;21.90;99.90
18729;DHT22;9493;51.884;5.188;2023-07-20T09:36:59;22.60;99.90
18729;DHT22;9493;51.884;5.188;2023-07-20T09:39:26;22.30;99.90
18729;DHT22;9493;51.884;5.188;2023-07-20T09:41:53;21.80;99.90
18729;DHT22;9493;51.884;5.188;2023-07-20T09:44:20;22.50;99.90
18729;DHT22;9493;51.884;5.188;2023-07-20T09:46:47;22.60;99.90
18729;DHT22;9493;51.884;5.188;2023-07-20T09:49:17;22.80;99.90
18729;DHT22;9493;51.884;5.188;2023-07-20T09:51:44;23.50;99.90
18729;DHT22;9493;51.884;5.188;2023-07-20T09:54:11;23.30;99.90
18729;DHT22;9493;51.884;5.188;2023-07-20T09:56:40;22.90;99.90
18729;DHT22;9493;51.884;5.188;2023-07-20T09:59:07;23.20;99.90
18729;DHT22;9493;51.884;5.188;2023-07-20T10:01:34;23.80;99.90
18729;DHT22;9493;51.884;5.188;2023-07-20T10:04:03;24.20;99.90
18729;DHT22;9493;51.884;5.188;2023-07-20T10:06:33;23.90;99.90
18729;DHT22;9493;51.884;5.188;2023-07-20T10:09:02;23.70;99.90
18729;DHT22;9493;51.884;5.188;2023-07-20T10:11:33;24.00;99.90
18729;DHT22;9493;51.884;5.188;2023-07-20T10:14:03;24.00;99.90
18729;DHT22;9493;51.884;5.188;2023-07-20T10:16:34;24.10;99.90
18729;DHT22;9493;51.884;5.188;2023-07-20T10:19:05;24.70;99.90
18729;DHT22;9493;51.884;5.188;2023-07-20T10:21:36;24.00;99.90
18729;DHT22;9493;51.884;5.188;2023-07-20T10:24:05;23.40;99.90
18729;DHT22;9493;51.884;5.188;2023-07-20T10:26:32;23.10;99.90
18729;DHT22;9493;51.884;5.188;2023-07-20T10:29:00;23.00;99.90
18729;DHT22;9493;51.884;5.188;2023-07-20T10:31:28;22.80;99.90
18729;DHT22;9493;51.884;5.188;2023-07-20T10:33:56;22.50;99.90
18729;DHT22;9493;51.884;5.188;2023-07-20T10:36:27;22.40;99.90
18729;DHT22;9493;51.884;5.188;2023-07-20T10:38:56;22.30;99.90
18729;DHT22;9493;51.884;5.188;2023-07-20T10:41:28;22.40;99.90
18729;DHT22;9493;51.884;5.188;2023-07-20T10:43:59;22.80;99.90
18729;DHT22;9493;51.884;5.188;2023-07-20T10:46:34;23.50;99.90
18729;DHT22;9493;51.884;5.188;2023-07-20T10:49:02;22.80;99.90
18729;DHT22;9493;51.884;5.188;2023-07-20T10:51:30;22.70;99.90
18729;DHT22;9493;51.884;5.188;2023-07-20T10:53:58;22.80;99.90
18729;DHT22;9493;51.884;5.188;2023-07-20T10:56:28;22.60;99.90
18729;DHT22;9493;51.884;5.188;2023-07-20T10:58:57;22.90;99.90
18729;DHT22;9493;51.884;5.188;2023-07-20T11:01:28;23.10;99.90
18729;DHT22;9493;51.884;5.188;2023-07-20T11:03:58;23.30;99.90
18729;DHT22;9493;51.884;5.188;2023-07-20T11:06:32;23.50;99.90
18729;DHT22;9493;51.884;5.188;2023-07-20T11:09:07;23.80;99.90
18729;DHT22;9493;51.884;5.188;2023-07-20T11:11:37;24.00;99.90
18729;DHT22;9493;51.884;5.188;2023-07-20T11:14:05;24.20;99.90
18729;DHT22;9493;51.884;5.188;2023-07-20T11:16:39;24.80;99.90
18729;DHT22;9493;51.884;5.188;2023-07-20T11:19:14;24.60;99.90
18729;DHT22;9493;51.884;5.188;2023-07-20T11:21:43;25.40;99.90
18729;DHT22;9493;51.884;5.188;2023-07-20T11:24:11;25.50;99.90
18729;DHT22;9493;51.884;5.188;2023-07-20T11:26:45;24.60;99.90
18729;DHT22;9493;51.884;5.188;2023-07-20T11:29:12;24.70;99.90
18729;DHT22;9493;51.884;5.188;2023-07-20T11:31:41;24.00;99.90
18729;DHT22;9493;51.884;5.188;2023-07-20T11:34:10;24.20;99.90
18729;DHT22;9493;51.884;5.188;2023-07-20T11:36:38;24.80;99.90
18729;DHT22;9493;51.884;5.188;2023-07-20T11:39:07;24.60;99.90
18729;DHT22;9493;51.884;5.188;2023-07-20T11:41:36;23.90;99.90
18729;DHT22;9493;51.884;5.188;2023-07-20T11:44:03;24.20;99.90
18729;DHT22;9493;51.884;5.188;2023-07-20T11:46:32;25.10;99.90
18729;DHT22;9493;51.884;5.188;2023-07-20T11:48:59;24.90;99.90
18729;DHT22;9493;51.884;5.188;2023-07-20T11:51:28;25.10;99.90
18729;DHT22;9493;51.884;5.188;2023-07-20T11:53:55;25.30;99.90
18729;DHT22;9493;51.884;5.188;2023-07-20T11:56:23;25.40;99.90
18729;DHT22;9493;51.884;5.188;2023-07-20T11:58:54;25.40;99.90
18729;DHT22;9493;51.884;5.188;2023-07-20T12:01:23;25.40;99.90
18729;DHT22;9493;51.884;5.188;2023-07-20T12:03:50;25.30;99.90
18729;DHT22;9493;51.884;5.188;2023-07-20T12:06:17;25.10;99.90
18729;DHT22;9493;51.884;5.188;2023-07-20T12:08:44;24.60;99.90
18729;DHT22;9493;51.884;5.188;2023-07-20T12:11:11;24.40;99.90
18729;DHT22;9493;51.884;5.188;2023-07-20T12:13:40;24.30;99.90
18729;DHT22;9493;51.884;5.188;2023-07-20T12:16:09;24.60;99.90
18729;DHT22;9493;51.884;5.188;2023-07-20T12:18:37;24.60;99.90
18729;DHT22;9493;51.884;5.188;2023-07-20T12:21:05;24.40;99.90
18729;DHT22;9493;51.884;5.188;2023-07-20T12:23:35;24.20;99.90
18729;DHT22;9493;51.884;5.188;2023-07-20T12:26:02;24.10;99.90
18729;DHT22;9493;51.884;5.188;2023-07-20T12:28:31;24.60;99.90
18729;DHT22;9493;51.884;5.188;2023-07-20T12:30:59;24.60;99.90
18729;DHT22;9493;51.884;5.188;2023-07-20T12:33:27;24.40;99.90
18729;DHT22;9493;51.884;5.188;2023-07-20T12:35:54;24.70;99.90
18729;DHT22;9493;51.884;5.188;2023-07-20T12:38:21;24.30;99.90
18729;DHT22;9493;51.884;5.188;2023-07-20T12:40:48;23.50;99.90
18729;DHT22;9493;51.884;5.188;2023-07-20T12:43:15;23.60;99.90
18729;DHT22;9493;51.884;5.188;2023-07-20T12:45:42;23.60;99.90
18729;DHT22;9493;51.884;5.188;2023-07-20T12:48:09;23.40;99.90
18729;DHT22;9493;51.884;5.188;2023-07-20T12:50:37;23.00;99.90
18729;DHT22;9493;51.884;5.188;2023-07-20T12:53:04;22.90;99.90
18729;DHT22;9493;51.884;5.188;2023-07-20T12:55:31;22.80;99.90
18729;DHT22;9493;51.884;5.188;2023-07-20T12:57:58;22.60;99.90
18729;DHT22;9493;51.884;5.188;2023-07-20T13:00:25;22.80;99.90
18729;DHT22;9493;51.884;5.188;2023-07-20T13:02:52;22.80;99.90
18729;DHT22;9493;51.884;5.188;2023-07-20T13:05:19;22.90;99.90
18729;DHT22;9493;51.884;5.188;2023-07-20T13:07:47;23.00;99.90
18729;DHT22;9493;51.884;5.188;2023-07-20T13:10:14;23.10;99.90
18729;DHT22;9493;51.884;5.188;2023-07-20T13:12:41;23.30;99.90
18729;DHT22;9493;51.884;5.188;2023-07-20T13:15:08;23.50;99.90
18729;DHT22;9493;51.884;5.188;2023-07-20T13:17:38;24.50;99.90
18729;DHT22;9493;51.884;5.188;2023-07-20T13:20:07;24.40;99.90
18729;DHT22;9493;51.884;5.188;2023-07-20T13:22:36;24.30;99.90
18729;DHT22;9493;51.884;5.188;2023-07-20T13:25:05;24.10;99.90
18729;DHT22;9493;51.884;5.188;2023-07-20T13:27:32;24.10;99.90
18729;DHT22;9493;51.884;5.188;2023-07-20T13:30:00;24.00;99.90
18729;DHT22;9493;51.884;5.188;2023-07-20T13:32:32;23.70;99.90
18729;DHT22;9493;51.884;5.188;2023-07-20T13:34:59;23.70;99.90
18729;DHT22;9493;51.884;5.188;2023-07-20T13:37:26;23.50;99.90
18729;DHT22;9493;51.884;5.188;2023-07-20T13:39:52;23.90;99.90
18729;DHT22;9493;51.884;5.188;2023-07-20T13:42:21;23.80;99.90
18729;DHT22;9493;51.884;5.188;2023-07-20T13:44:47;23.80;99.90
18729;DHT22;9493;51.884;5.188;2023-07-20T13:47:14;24.00;99.90
18729;DHT22;9493;51.884;5.188;2023-07-20T13:49:41;24.40;99.90
18729;DHT22;9493;51.884;5.188;2023-07-20T13:52:08;24.40;99.90
18729;DHT22;9493;51.884;5.188;2023-07-20T13:54:35;24.20;99.90
18729;DHT22;9493;51.884;5.188;2023-07-20T13:57:02;24.20;99.90
18729;DHT22;9493;51.884;5.188;2023-07-20T13:59:30;24.40;99.90
18729;DHT22;9493;51.884;5.188;2023-07-20T14:01:57;24.90;99.90
18729;DHT22;9493;51.884;5.188;2023-07-20T14:04:24;25.50;99.90
18729;DHT22;9493;51.884;5.188;2023-07-20T14:06:51;25.60;99.90
18729;DHT22;9493;51.884;5.188;2023-07-20T14:09:18;25.60;99.60
18729;DHT22;9493;51.884;5.188;2023-07-20T14:11:44;25.80;99.10
18729;DHT22;9493;51.884;5.188;2023-07-20T14:14:11;25.70;98.80
18729;DHT22;9493;51.884;5.188;2023-07-20T14:16:39;25.40;98.70
18729;DHT22;9493;51.884;5.188;2023-07-20T14:19:07;24.80;98.60
18729;DHT22;9493;51.884;5.188;2023-07-20T14:21:33;24.40;98.80
18729;DHT22;9493;51.884;5.188;2023-07-20T14:24:00;24.00;99.00
18729;DHT22;9493;51.884;5.188;2023-07-20T14:26:27;23.90;99.40
18729;DHT22;9493;51.884;5.188;2023-07-20T14:28:54;23.70;99.70
18729;DHT22;9493;51.884;5.188;2023-07-20T14:31:21;23.80;99.70
18729;DHT22;9493;51.884;5.188;2023-07-20T14:33:49;23.80;99.90
18729;DHT22;9493;51.884;5.188;2023-07-20T14:36:16;23.90;99.90
18729;DHT22;9493;51.884;5.188;2023-07-20T14:38:43;23.90;99.90
18729;DHT22;9493;51.884;5.188;2023-07-20T14:41:10;24.00;99.90
18729;DHT22;9493;51.884;5.188;2023-07-20T14:43:37;23.90;99.90
18729;DHT22;9493;51.884;5.188;2023-07-20T14:46:05;23.90;99.90
18729;DHT22;9493;51.884;5.188;2023-07-20T14:48:32;24.00;99.90
18729;DHT22;9493;51.884;5.188;2023-07-20T14:51:00;23.80;99.90
18729;DHT22;9493;51.884;5.188;2023-07-20T14:53:27;23.70;99.90
18729;DHT22;9493;51.884;5.188;2023-07-20T14:55:58;23.70;99.90
18729;DHT22;9493;51.884;5.188;2023-07-20T14:58:26;23.60;99.90
18729;DHT22;9493;51.884;5.188;2023-07-20T15:00:52;23.80;99.80
18729;DHT22;9493;51.884;5.188;2023-07-20T15:03:19;23.60;99.80
18729;DHT22;9493;51.884;5.188;2023-07-20T15:05:46;23.50;99.70
18729;DHT22;9493;51.884;5.188;2023-07-20T15:08:14;23.70;99.60
18729;DHT22;9493;51.884;5.188;2023-07-20T15:10:41;23.70;99.60
18729;DHT22;9493;51.884;5.188;2023-07-20T15:13:12;23.80;99.40
18729;DHT22;9493;51.884;5.188;2023-07-20T15:15:39;24.20;99.30
18729;DHT22;9493;51.884;5.188;2023-07-20T15:18:07;24.60;99.30
18729;DHT22;9493;51.884;5.188;2023-07-20T15:20:34;24.50;99.30
18729;DHT22;9493;51.884;5.188;2023-07-20T15:23:01;24.80;99.40
18729;DHT22;9493;51.884;5.188;2023-07-20T15:25:29;24.20;99.30
18729;DHT22;9493;51.884;5.188;2023-07-20T15:27:56;23.80;99.40
18729;DHT22;9493;51.884;5.188;2023-07-20T15:30:22;23.70;99.60
18729;DHT22;9493;51.884;5.188;2023-07-20T15:32:49;23.70;99.60
18729;DHT22;9493;51.884;5.188;2023-07-20T15:35:16;23.70;99.70
18729;DHT22;9493;51.884;5.188;2023-07-20T15:37:43;23.40;99.70
18729;DHT22;9493;51.884;5.188;2023-07-20T15:40:11;23.30;99.80
18729;DHT22;9493;51.884;5.188;2023-07-20T15:42:39;23.30;99.90
18729;DHT22;9493;51.884;5.188;2023-07-20T15:45:07;23.10;99.90
18729;DHT22;9493;51.884;5.188;2023-07-20T15:47:34;23.00;99.90
18729;DHT22;9493;51.884;5.188;2023-07-20T15:50:01;23.00;99.90